Time;durP1;ratioP1;P1;durP2;ratioP2;P2;SDS_P1;SDS_P2;PMS_P1;PMS_P2;Temp;Humidity;BMP_temperature;BMP_pressure;BME280_temperature;BME280_humidity;BME280_pressure;Samples;Min_cycle;Max_cycle;Signal;HPM_P1;HPM_P2
2022/01/10 00:01:50;;;;;;;;;;;;;;;-2.57;100.00;98541.56;1750151;81;20122;-65
2022/01/10 00:04:17;;;;;;;;;;;;;;;-2.57;100.00;98541.56;1754787;81;20566;-66
2022/01/10 00:06:45;;;;;;;;;;;;;;;-2.56;100.00;98541.05;1754855;82;20416;-66
2022/01/10 00:09:13;;;;;;;;;;;;;;;-2.56;100.00;98548.42;1754388;81;20119;-66
2022/01/10 00:11:40;;;;;;;;;;;;;;;-2.55;100.00;98550.55;1754951;82;20429;-66
2022/01/10 00:14:06;;;;;;;;;;;;;;;-2.55;100.00;98551.34;1754649;81;20118;-66
2022/01/10 00:16:35;;;;;;;;;;;;;;;-2.53;100.00;98551.17;1753703;81;20110;-66
2022/01/10 00:19:01;;;;;;;;;;;;;;;-2.54;100.00;98556.94;1751423;81;20440;-65
2022/01/10 00:21:28;;;;;;;;;;;;;;;-2.52;100.00;98560.66;1754484;82;21149;-66
2022/01/10 00:23:54;;;;;;;;;;;;;;;-2.52;100.00;98562.81;1751545;81;20090;-64
2022/01/10 00:26:27;;;;;;;;;;;;;;;-2.51;100.00;98571.50;1750681;82;20106;-66
2022/01/10 00:28:54;;;;;;;;;;;;;;;-2.50;100.00;98579.20;1751263;81;20103;-64
2022/01/10 00:31:21;;;;;;;;;;;;;;;-2.48;100.00;98564.53;1746393;82;20083;-64
2022/01/10 00:33:48;;;;;;;;;;;;;;;-2.51;100.00;98564.92;1750939;81;21095;-66
2022/01/10 00:36:14;;;;;;;;;;;;;;;-2.52;100.00;98570.69;1754336;81;20098;-66
2022/01/10 00:38:41;;;;;;;;;;;;;;;-2.52;100.00;98569.86;1754974;82;20091;-63
2022/01/10 00:41:10;;;;;;;;;;;;;;;-2.52;100.00;98578.58;1754589;81;20113;-66
2022/01/10 00:43:41;;;;;;;;;;;;;;;-2.52;100.00;98573.32;1752953;82;20682;-65
2022/01/10 00:46:07;;;;;;;;;;;;;;;-2.50;100.00;98577.05;1754214;81;21155;-62
2022/01/10 00:48:33;;;;;;;;;;;;;;;-2.50;100.00;98576.57;1754636;82;20423;-66
2022/01/10 00:51:00;;;;;;;;;;;;;;;-2.51;100.00;98571.50;1754586;82;20086;-66
2022/01/10 00:53:26;;;;;;;;;;;;;;;-2.52;100.00;98560.19;1754849;82;20157;-66
2022/01/10 00:55:53;;;;;;;;;;;;;;;-2.52;100.00;98567.23;1754567;82;20150;-66
2022/01/10 00:58:19;;;;;;;;;;;;;;;-2.51;100.00;98567.55;1754737;82;23269;-66
2022/01/10 01:00:46;;;;;;;;;;;;;;;-2.51;100.00;98571.50;1754427;82;20138;-64
2022/01/10 01:03:12;;;;;;;;;;;;;;;-2.51;100.00;98578.88;1750312;81;20526;-65
2022/01/10 01:05:42;;;;;;;;;;;;;;;-2.51;100.00;98573.62;1754357;82;20443;-64
2022/01/10 01:08:10;;;;;;;;;;;;;;;-2.52;100.00;98569.38;1754580;82;20086;-64
2022/01/10 01:24:05;;;;;;;;;;;;;;;-2.55;100.00;98596.02;1754541;82;21191;-66
2022/01/10 01:26:36;;;;;;;;;;;;;;;-2.55;100.00;98595.21;1754514;82;20112;-66
2022/01/10 01:29:04;;;;;;;;;;;;;;;-2.56;100.00;98603.60;1726045;81;20165;-65
2022/01/10 01:31:31;;;;;;;;;;;;;;;-2.57;100.00;98605.09;1754625;82;20606;-67
2022/01/10 01:33:57;;;;;;;;;;;;;;;-2.59;100.00;98606.11;1754624;82;20142;-67
2022/01/10 01:36:25;;;;;;;;;;;;;;;-2.60;100.00;98608.45;1754478;82;21145;-66
2022/01/10 01:38:53;;;;;;;;;;;;;;;-2.60;100.00;98611.08;1754671;82;20139;-65
2022/01/10 01:43:49;;;;;;;;;;;;;;;-2.62;100.00;98605.70;1754527;82;20083;-65
2022/01/10 01:46:16;;;;;;;;;;;;;;;-2.62;100.00;98617.02;1754248;82;20127;-65
2022/01/10 01:48:44;;;;;;;;;;;;;;;-2.64;100.00;98610.33;1752237;82;21180;-66
2022/01/10 01:51:12;;;;;;;;;;;;;;;-2.66;100.00;98613.64;1752986;82;20416;-65
2022/01/10 01:53:39;;;;;;;;;;;;;;;-2.67;100.00;98623.83;1752758;82;20095;-66
2022/01/10 01:56:07;;;;;;;;;;;;;;;-2.71;100.00;98623.41;1752825;82;20389;-67
2022/01/10 01:58:34;;;;;;;;;;;;;;;-2.73;100.00;98624.09;1753008;82;20182;-67
2022/01/10 02:01:00;;;;;;;;;;;;;;;-2.73;100.00;98631.17;1752863;82;21155;-66
2022/01/10 02:03:27;;;;;;;;;;;;;;;-2.75;100.00;98638.42;1752255;82;20116;-67
2022/01/10 02:05:56;;;;;;;;;;;;;;;-2.77;100.00;98629.41;1752408;81;20083;-65
2022/01/10 02:08:23;;;;;;;;;;;;;;;-2.80;100.00;98635.86;1752924;82;20131;-66
2022/01/10 02:10:50;;;;;;;;;;;;;;;-2.83;100.00;98637.55;1752763;82;20115;-67
2022/01/10 02:13:18;;;;;;;;;;;;;;;-2.85;100.00;98640.06;1752515;82;21159;-65
2022/01/10 02:15:50;;;;;;;;;;;;;;;-2.86;100.00;98635.31;1752617;82;20083;-67
2022/01/10 02:18:17;;;;;;;;;;;;;;;-2.89;100.00;98633.08;1752452;82;20473;-66
2022/01/10 02:20:46;;;;;;;;;;;;;;;-2.93;100.00;98643.64;1752934;82;20110;-67
2022/01/10 02:23:14;;;;;;;;;;;;;;;-2.99;100.00;98644.37;1753222;82;20114;-66
2022/01/10 02:26:00;;;;;;;;;;;;;;;-3.01;100.00;98643.78;1752722;82;21848;-67
2022/01/10 02:28:29;;;;;;;;;;;;;;;-3.07;100.00;98643.20;1711883;83;20097;-67
2022/01/10 02:30:57;;;;;;;;;;;;;;;-3.08;100.00;98647.65;1712134;84;20073;-66
2022/01/10 02:33:25;;;;;;;;;;;;;;;-3.13;100.00;98653.97;1712169;83;20552;-65
2022/01/10 02:36:04;;;;;;;;;;;;;;;-3.14;100.00;98643.13;1712255;84;20403;-66
2022/01/10 02:38:23;;;;;;;;;;;;;;;-3.16;100.00;98643.84;1712415;83;21394;-63
2022/01/10 02:40:52;;;;;;;;;;;;;;;-3.19;100.00;98651.27;1713712;83;20442;-66
2022/01/10 02:43:19;;;;;;;;;;;;;;;-3.24;100.00;98657.07;1712165;83;20146;-66
2022/01/10 02:45:46;;;;;;;;;;;;;;;-3.25;100.00;98663.33;1712118;83;20412;-67
2022/01/10 02:48:12;;;;;;;;;;;;;;;-3.26;100.00;98663.84;1712398;83;20166;-67
2022/01/10 02:50:39;;;;;;;;;;;;;;;-3.25;100.00;98660.70;1712009;83;22096;-66
2022/01/10 02:53:08;;;;;;;;;;;;;;;-3.26;100.00;98671.71;1711944;83;20085;-65
2022/01/10 02:55:36;;;;;;;;;;;;;;;-3.29;100.00;98673.38;1711988;83;20415;-67
2022/01/10 02:58:02;;;;;;;;;;;;;;;-3.28;100.00;98672.39;1712003;83;20101;-67
2022/01/10 03:00:29;;;;;;;;;;;;;;;-3.27;100.00;98671.38;1712073;83;20121;-68
2022/01/10 03:02:58;;;;;;;;;;;;;;;-3.25;100.00;98681.20;1712083;83;21178;-68
2022/01/10 03:05:25;;;;;;;;;;;;;;;-3.27;100.00;98677.94;1712005;84;20122;-65
2022/01/10 03:07:53;;;;;;;;;;;;;;;-3.26;100.00;98682.69;1712200;83;20074;-66
2022/01/10 03:10:20;;;;;;;;;;;;;;;-3.28;100.00;98684.71;1712013;83;20524;-66
2022/01/10 03:12:48;;;;;;;;;;;;;;;-3.29;100.00;98685.69;1712015;84;20129;-67
2022/01/10 03:15:17;;;;;;;;;;;;;;;-3.27;100.00;98691.57;1712588;83;20761;-66
2022/01/10 03:17:44;;;;;;;;;;;;;;;-3.26;100.00;98699.27;1713014;83;20101;-66
2022/01/10 03:20:11;;;;;;;;;;;;;;;-3.27;100.00;98702.07;1712213;83;20118;-66
2022/01/10 03:22:37;;;;;;;;;;;;;;;-3.27;100.00;98698.13;1712353;83;20098;-66
2022/01/10 03:25:05;;;;;;;;;;;;;;;-3.28;100.00;98699.95;1711673;83;20146;-64
2022/01/10 03:27:33;;;;;;;;;;;;;;;-3.28;100.00;98703.08;1712072;83;21144;-67
2022/01/10 03:30:00;;;;;;;;;;;;;;;-3.31;100.00;98708.67;1711952;83;20432;-67
2022/01/10 03:32:27;;;;;;;;;;;;;;;-3.36;100.00;98721.54;1711908;83;20113;-66
2022/01/10 03:34:57;;;;;;;;;;;;;;;-3.45;100.00;98725.59;1711994;84;20078;-67
2022/01/10 03:37:25;;;;;;;;;;;;;;;-3.49;100.00;98724.83;1713611;83;20454;-68
2022/01/10 03:39:51;;;;;;;;;;;;;;;-3.54;100.00;98725.38;1712062;83;21148;-67
2022/01/10 03:42:19;;;;;;;;;;;;;;;-3.58;100.00;98727.23;1711941;83;20098;-68
2022/01/10 03:44:46;;;;;;;;;;;;;;;-3.58;100.00;98728.55;1711929;83;20157;-68
2022/01/10 03:47:12;;;;;;;;;;;;;;;-3.61;100.00;98732.34;1712172;83;20122;-69
2022/01/10 03:49:39;;;;;;;;;;;;;;;-3.66;100.00;98734.20;1712079;83;20085;-67
2022/01/10 03:52:06;;;;;;;;;;;;;;;-3.68;100.00;98742.74;1712186;83;21230;-67
2022/01/10 03:54:33;;;;;;;;;;;;;;;-3.68;100.00;98743.25;1711928;84;20136;-65
2022/01/10 03:57:00;;;;;;;;;;;;;;;-3.73;100.00;98745.09;1712412;83;20472;-67
2022/01/10 03:59:27;;;;;;;;;;;;;;;-3.76;100.00;98746.78;1711957;84;20090;-66
2022/01/10 04:01:54;;;;;;;;;;;;;;;-3.81;100.00;98749.14;1712036;83;20093;-66
2022/01/10 04:04:21;;;;;;;;;;;;;;;-3.81;100.00;98750.95;1711940;83;22011;-65
2022/01/10 04:06:48;;;;;;;;;;;;;;;-3.83;100.00;98757.67;1711841;83;20086;-68
2022/01/10 04:09:19;;;;;;;;;;;;;;;-3.86;100.00;98758.55;1712138;83;20086;-66
2022/01/10 04:11:45;;;;;;;;;;;;;;;-3.90;100.00;98764.63;1689999;84;20156;-66
2022/01/10 04:14:13;;;;;;;;;;;;;;;-3.95;100.00;98767.78;1712010;83;20160;-65
2022/01/10 04:16:39;;;;;;;;;;;;;;;-3.97;100.00;98767.65;1712195;84;21159;-64
2022/01/10 04:19:06;;;;;;;;;;;;;;;-3.96;100.00;98774.54;1711614;83;20149;-68
2022/01/10 04:21:33;;;;;;;;;;;;;;;-3.97;100.00;98775.52;1711916;83;20126;-66
2022/01/10 04:24:00;;;;;;;;;;;;;;;-3.96;100.00;98772.72;1712128;84;20467;-66
2022/01/10 04:26:26;;;;;;;;;;;;;;;-3.96;100.00;98779.78;1711903;83;20140;-67
2022/01/10 04:28:53;;;;;;;;;;;;;;;-3.97;100.00;98782.91;1711803;83;21163;-67
2022/01/10 04:31:20;;;;;;;;;;;;;;;-3.97;100.00;98788.63;1711596;83;20157;-65
2022/01/10 04:33:46;;;;;;;;;;;;;;;-3.97;100.00;98792.08;1712039;84;20189;-68
2022/01/10 04:36:13;;;;;;;;;;;;;;;-3.97;100.00;98795.17;1712021;83;20153;-67
2022/01/10 04:38:42;;;;;;;;;;;;;;;-3.96;100.00;98798.14;1712036;83;20158;-66
2022/01/10 04:41:10;;;;;;;;;;;;;;;-3.98;100.00;98802.23;1711872;84;21171;-68
2022/01/10 04:43:38;;;;;;;;;;;;;;;-3.97;100.00;98807.81;1711972;83;20431;-69
2022/01/10 04:46:05;;;;;;;;;;;;;;;-3.96;100.00;98805.50;1712094;83;20427;-68
2022/01/10 04:48:32;;;;;;;;;;;;;;;-3.96;100.00;98805.50;1712113;84;20157;-68
2022/01/10 04:53:32;;;;;;;;;;;;;;;-3.95;100.00;98818.10;1712207;83;21849;-65
2022/01/10 04:55:59;;;;;;;;;;;;;;;-3.96;100.00;98813.86;1711807;83;20089;-67
2022/01/10 04:58:25;;;;;;;;;;;;;;;-3.94;100.00;98814.50;1713105;82;20440;-67
2022/01/10 05:00:53;;;;;;;;;;;;;;;-3.94;100.00;98810.58;1713332;83;20410;-66
2022/01/10 05:03:20;;;;;;;;;;;;;;;-3.93;100.00;98818.24;1683553;85;20116;-67
2022/01/10 05:05:53;;;;;;;;;;;;;;;-3.93;100.00;98818.74;1681389;85;21217;-68
2022/01/10 05:08:24;;;;;;;;;;;;;;;-3.92;100.00;98819.89;1713815;83;20419;-67
2022/01/10 05:10:51;;;;;;;;;;;;;;;-3.93;100.00;98820.86;1709847;83;20114;-66
2022/01/10 05:13:18;;;;;;;;;;;;;;;-3.93;100.00;98827.42;1697522;84;20657;-68
2022/01/10 05:15:46;;;;;;;;;;;;;;;-3.93;100.00;98826.61;1698158;84;20103;-66
2022/01/10 05:18:14;;;;;;;;;;;;;;;-3.93;100.00;98821.36;1709253;83;21156;-66
2022/01/10 05:20:41;;;;;;;;;;;;;;;-3.91;100.00;98823.31;1709478;84;20122;-67
2022/01/10 05:23:07;;;;;;;;;;;;;;;-3.91;100.00;98833.80;1709281;84;20416;-68
2022/01/10 05:25:39;;;;;;;;;;;;;;;-3.92;100.00;98834.30;1709479;84;20113;-68
2022/01/10 05:28:05;;;;;;;;;;;;;;;-3.94;100.00;98837.59;1709155;83;20097;-67
2022/01/10 05:30:32;;;;;;;;;;;;;;;-3.93;100.00;98838.41;1707955;82;21809;-67
2022/01/10 05:32:58;;;;;;;;;;;;;;;-3.95;100.00;98845.13;1708102;84;20102;-65
2022/01/10 05:35:29;;;;;;;;;;;;;;;-3.95;100.00;98849.56;1708434;83;20475;-66
2022/01/10 05:37:55;;;;;;;;;;;;;;;-3.94;100.00;98852.52;1712368;83;20173;-64
2022/01/10 05:40:22;;;;;;;;;;;;;;;-3.95;100.00;98855.61;1712805;83;20430;-65
2022/01/10 05:42:51;;;;;;;;;;;;;;;-3.95;100.00;98856.12;1709636;83;20895;-66
2022/01/10 05:45:17;;;;;;;;;;;;;;;-3.95;100.00;98847.75;1712037;83;20102;-66
2022/01/10 05:47:45;;;;;;;;;;;;;;;-3.95;100.00;98860.05;1712018;83;20114;-66
2022/01/10 05:50:16;;;;;;;;;;;;;;;-3.95;100.00;98855.61;1704726;83;20411;-66
2022/01/10 05:52:44;;;;;;;;;;;;;;;-3.94;100.00;98859.08;1709714;83;20149;-65
2022/01/10 05:55:11;;;;;;;;;;;;;;;-3.94;100.00;98866.44;1713737;83;21145;-67
2022/01/10 05:57:39;;;;;;;;;;;;;;;-3.93;100.00;98871.18;1705759;83;20150;-67
2022/01/10 06:00:07;;;;;;;;;;;;;;;-3.95;100.00;98864.79;1748540;81;20189;-68
2022/01/10 06:02:36;;;;;;;;;;;;;;;-3.95;100.00;98871.34;1742222;81;20206;-67
2022/01/10 06:05:09;;;;;;;;;;;;;;;-3.95;100.00;98879.21;1747349;81;20091;-69
2022/01/10 06:07:44;;;;;;;;;;;;;;;-3.93;100.00;98885.09;1746992;81;21219;-68
2022/01/10 06:10:11;;;;;;;;;;;;;;;-3.93;100.00;98884.29;1741352;82;20130;-69
2022/01/10 06:12:38;;;;;;;;;;;;;;;-3.92;100.00;98892.46;1749784;81;20193;-65
2022/01/10 06:15:05;;;;;;;;;;;;;;;-3.89;100.00;98893.44;1747203;81;20144;-67
2022/01/10 06:17:33;;;;;;;;;;;;;;;-3.88;100.00;98905.05;1753827;81;20479;-66
2022/01/10 06:20:00;;;;;;;;;;;;;;;-3.86;100.00;98902.76;1754240;82;21230;-67
2022/01/10 06:22:27;;;;;;;;;;;;;;;-3.84;100.00;98908.65;1754222;81;20102;-66
2022/01/10 06:24:55;;;;;;;;;;;;;;;-3.82;100.00;98911.41;1754221;82;20119;-64
2022/01/10 06:27:23;;;;;;;;;;;;;;;-3.80;100.00;98909.91;1754405;81;20129;-67
2022/01/10 06:29:50;;;;;;;;;;;;;;;-3.80;100.00;98918.58;1750334;81;20440;-67
2022/01/10 06:32:16;;;;;;;;;;;;;;;-3.81;100.00;98920.09;1754203;81;20813;-68
2022/01/10 06:34:43;;;;;;;;;;;;;;;-3.80;100.00;98924.33;1754243;81;20126;-67
2022/01/10 06:37:10;;;;;;;;;;;;;;;-3.75;100.00;98937.73;1746919;81;20202;-65
2022/01/10 06:39:38;;;;;;;;;;;;;;;-3.73;100.00;98932.63;1729868;82;20487;-65
2022/01/10 06:42:05;;;;;;;;;;;;;;;-3.73;100.00;98942.30;1741917;81;20215;-65
2022/01/10 06:44:39;;;;;;;;;;;;;;;-3.73;100.00;98952.79;1749671;81;21082;-68
2022/01/10 06:47:06;;;;;;;;;;;;;;;-3.73;100.00;98953.60;1753111;82;20166;-65
2022/01/10 06:49:33;;;;;;;;;;;;;;;-3.71;100.00;98960.80;1753583;82;20125;-67
2022/01/10 06:51:59;;;;;;;;;;;;;;;-3.72;100.00;98963.13;1753632;82;20158;-67
2022/01/10 06:54:26;;;;;;;;;;;;;;;-3.70;100.00;98969.02;1747449;82;20126;-65
2022/01/10 06:56:53;;;;;;;;;;;;;;;-3.70;100.00;98970.32;1718346;82;21101;-65
2022/01/10 06:59:20;;;;;;;;;;;;;;;-3.67;100.00;98973.09;1722613;83;20512;-66
2022/01/10 07:01:46;;;;;;;;;;;;;;;-3.69;100.00;98973.75;1722293;83;20153;-65
2022/01/10 07:04:13;;;;;;;;;;;;;;;-3.69;100.00;98976.38;1722989;83;21107;-67
2022/01/10 07:06:43;;;;;;;;;;;;;;;-3.71;100.00;98969.98;1722562;83;20099;-66
2022/01/10 07:09:11;;;;;;;;;;;;;;;-3.67;100.00;98973.09;1723093;83;21102;-66
2022/01/10 07:11:39;;;;;;;;;;;;;;;-3.63;100.00;98973.03;1722394;83;20130;-64
2022/01/10 07:14:08;;;;;;;;;;;;;;;-3.60;100.00;98975.80;1722672;83;20154;-67
2022/01/10 07:16:35;;;;;;;;;;;;;;;-3.59;100.00;98983.50;1722591;83;20631;-64
2022/01/10 07:19:03;;;;;;;;;;;;;;;-3.55;100.00;98987.89;1729194;81;20244;-66
2022/01/10 07:21:32;;;;;;;;;;;;;;;-3.58;100.00;98990.38;1743272;82;21835;-68
2022/01/10 07:23:59;;;;;;;;;;;;;;;-3.56;100.00;98988.39;1744621;82;20139;-66
2022/01/10 07:26:27;;;;;;;;;;;;;;;-3.53;100.00;98994.62;1744423;82;20126;-65
2022/01/10 07:28:54;;;;;;;;;;;;;;;-3.51;100.00;98994.42;1744865;82;20131;-66
2022/01/10 07:31:20;;;;;;;;;;;;;;;-3.52;100.00;98996.23;1748036;82;20095;-66
2022/01/10 07:33:47;;;;;;;;;;;;;;;-3.48;100.00;99000.15;1754286;82;21171;-66
2022/01/10 07:36:13;;;;;;;;;;;;;;;-3.49;100.00;98997.19;1754132;82;20114;-65
2022/01/10 07:38:40;;;;;;;;;;;;;;;-3.49;100.00;98999.81;1755885;81;20110;-66
2022/01/10 07:41:08;;;;;;;;;;;;;;;-3.47;100.00;98997.02;1755869;81;20500;-65
2022/01/10 07:43:35;;;;;;;;;;;;;;;-3.46;100.00;99002.58;1756635;81;20118;-63
2022/01/10 07:46:03;;;;;;;;;;;;;;;-3.42;100.00;99005.68;1756586;81;21158;-65
2022/01/10 07:48:31;;;;;;;;;;;;;;;-3.44;100.00;99005.84;1758167;81;20147;-66
2022/01/10 07:50:57;;;;;;;;;;;;;;;-3.41;100.00;99008.61;1756261;81;20106;-66
2022/01/10 07:53:25;;;;;;;;;;;;;;;-3.38;100.00;99009.56;1756618;81;20139;-66
2022/01/10 07:55:51;;;;;;;;;;;;;;;-3.37;100.00;99013.33;1756250;81;20141;-65
2022/01/10 07:58:18;;;;;;;;;;;;;;;-3.36;100.00;99022.02;1757163;81;21139;-64
2022/01/10 08:00:45;;;;;;;;;;;;;;;-3.32;100.00;99023.30;1756647;81;20078;-66
2022/01/10 08:03:11;;;;;;;;;;;;;;;-3.29;100.00;99024.25;1744747;81;20134;-65
2022/01/10 08:05:38;;;;;;;;;;;;;;;-3.27;100.00;99034.08;1744553;82;20095;-64
2022/01/10 08:08:04;;;;;;;;;;;;;;;-3.27;100.00;99035.39;1744190;82;20141;-65
2022/01/10 08:10:31;;;;;;;;;;;;;;;-3.36;100.00;99038.57;1744336;82;21154;-66
2022/01/10 08:12:58;;;;;;;;;;;;;;;-3.39;100.00;99043.37;1744598;82;20123;-66
2022/01/10 08:15:24;;;;;;;;;;;;;;;-3.40;100.00;99047.81;1723787;82;20169;-65
2022/01/10 08:17:51;;;;;;;;;;;;;;;-3.41;100.00;99060.59;1713505;82;20085;-66
2022/01/10 08:20:17;;;;;;;;;;;;;;;-3.48;100.00;99055.72;1733437;81;20452;-67
2022/01/10 08:22:44;;;;;;;;;;;;;;;-3.50;100.00;99061.66;1743299;81;21124;-66
2022/01/10 08:25:11;;;;;;;;;;;;;;;-3.49;100.00;99068.53;1732860;81;20429;-65
2022/01/10 08:27:37;;;;;;;;;;;;;;;-3.53;100.00;99068.55;1754825;81;20142;-66
2022/01/10 08:30:05;;;;;;;;;;;;;;;-3.54;100.00;99074.80;1755901;81;20166;-65
2022/01/10 08:32:32;;;;;;;;;;;;;;;-3.56;100.00;99085.45;1754966;81;20134;-66
2022/01/10 08:34:59;;;;;;;;;;;;;;;-3.59;100.00;99073.20;1754250;82;21149;-64
2022/01/10 08:37:25;;;;;;;;;;;;;;;-3.60;100.00;99084.66;1753623;81;20121;-66
2022/01/10 08:39:52;;;;;;;;;;;;;;;-3.55;100.00;99086.27;1754114;81;20130;-66
2022/01/10 08:42:20;;;;;;;;;;;;;;;-3.55;100.00;99098.91;1754269;82;20183;-66
2022/01/10 08:44:46;;;;;;;;;;;;;;;-3.56;100.00;99095.14;1744692;81;20193;-65
2022/01/10 08:47:13;;;;;;;;;;;;;;;-3.57;100.00;99099.58;1722724;83;21131;-65
2022/01/10 08:49:40;;;;;;;;;;;;;;;-3.57;100.00;99101.39;1722710;83;20414;-65
2022/01/10 08:52:07;;;;;;;;;;;;;;;-3.66;100.00;99100.61;1722597;83;20155;-67
2022/01/10 08:54:33;;;;;;;;;;;;;;;-3.67;100.00;99101.62;1722866;83;20136;-66
2022/01/10 08:57:00;;;;;;;;;;;;;;;-3.74;100.00;99101.48;1722749;83;20177;-64
2022/01/10 08:59:30;;;;;;;;;;;;;;;-3.75;100.00;99109.04;1722597;83;20733;-65
2022/01/10 09:01:57;;;;;;;;;;;;;;;-3.81;100.00;99096.59;1722689;83;20285;-66
2022/01/10 09:04:24;;;;;;;;;;;;;;;-3.82;100.00;99115.12;1722663;83;20193;-66
2022/01/10 09:06:51;;;;;;;;;;;;;;;-3.81;100.00;99111.52;1738192;82;20091;-66
2022/01/10 09:09:18;;;;;;;;;;;;;;;-3.84;100.00;99112.69;1716679;82;20451;-64
2022/01/10 09:11:46;;;;;;;;;;;;;;;-3.91;100.00;99093.37;1714315;83;21191;-66
2022/01/10 09:14:13;;;;;;;;;;;;;;;-4.00;100.00;99121.93;1713895;83;20412;-66
2022/01/10 09:16:40;;;;;;;;;;;;;;;-4.08;100.00;99122.78;1713775;82;20097;-66
2022/01/10 09:19:07;;;;;;;;;;;;;;;-4.14;100.00;99124.75;1713598;83;20093;-64
2022/01/10 09:21:34;;;;;;;;;;;;;;;-4.08;100.00;99133.77;1713930;83;20149;-64
2022/01/10 09:24:01;;;;;;;;;;;;;;;-4.05;100.00;99130.80;1713811;83;21153;-65
2022/01/10 09:26:28;;;;;;;;;;;;;;;-4.03;100.00;99128.83;1715596;81;20121;-63
2022/01/10 09:28:54;;;;;;;;;;;;;;;-4.00;100.00;99140.28;1748713;81;20126;-64
2022/01/10 09:31:34;;;;;;;;;;;;;;;-3.99;100.00;99145.84;1740716;81;20174;-64
2022/01/10 09:34:00;;;;;;;;;;;;;;;-3.97;100.00;99147.80;1685787;84;20136;-66
2022/01/10 09:36:29;;;;;;;;;;;;;;;-4.01;100.00;99150.45;1685495;84;21128;-66
2022/01/10 09:38:57;;;;;;;;;;;;;;;-4.04;100.00;99145.53;1685464;84;20562;-67
2022/01/10 09:41:24;;;;;;;;;;;;;;;-4.01;100.00;99147.84;1686103;84;20150;-65
2022/01/10 09:44:00;;;;;;;;;;;;;;;-3.96;100.00;99152.88;1685386;84;20438;-65
2022/01/10 09:46:27;;;;;;;;;;;;;;;-4.06;100.00;99158.02;1685652;85;20155;-64
2022/01/10 09:48:54;;;;;;;;;;;;;;;-4.04;100.00;99154.70;1685636;85;21186;-63
2022/01/10 09:51:23;;;;;;;;;;;;;;;-4.05;100.00;99152.58;1685721;85;20142;-65
2022/01/10 09:53:50;;;;;;;;;;;;;;;-4.15;100.00;99166.38;1685260;84;20114;-64
2022/01/10 09:56:16;;;;;;;;;;;;;;;-4.11;100.00;99165.07;1685564;85;20113;-64
2022/01/10 09:58:43;;;;;;;;;;;;;;;-4.07;100.00;99165.03;1685437;85;20177;-66
2022/01/10 10:01:12;;;;;;;;;;;;;;;-4.18;100.00;99163.61;1685797;85;21749;-63
2022/01/10 10:03:39;;;;;;;;;;;;;;;-4.18;100.00;99165.42;1685405;85;20098;-64
2022/01/10 10:06:05;;;;;;;;;;;;;;;-4.11;100.00;99168.50;1696179;83;20094;-64
2022/01/10 10:08:32;;;;;;;;;;;;;;;-4.07;100.00;99170.78;1660668;83;20481;-68
2022/01/10 10:10:59;;;;;;;;;;;;;;;-4.10;100.00;99176.67;1658414;83;20142;-64
2022/01/10 10:13:26;;;;;;;;;;;;;;;-3.98;100.00;99165.84;1672278;83;21156;-63
2022/01/10 10:15:55;;;;;;;;;;;;;;;-3.97;100.00;99167.46;1744172;82;20107;-66
2022/01/10 10:18:21;;;;;;;;;;;;;;;-3.96;100.00;99181.72;1744228;82;20441;-65
2022/01/10 10:20:47;;;;;;;;;;;;;;;-3.94;100.00;99174.52;1744296;82;20119;-66
2022/01/10 10:23:16;;;;;;;;;;;;;;;-3.85;100.00;99183.15;1744164;82;20272;-67
2022/01/10 10:25:52;;;;;;;;;;;;;;;-3.79;100.00;99181.67;1744268;82;21164;-64
2022/01/10 10:28:19;;;;;;;;;;;;;;;-3.90;100.00;99178.91;1744195;82;20099;-65
2022/01/10 10:30:45;;;;;;;;;;;;;;;-3.95;100.00;99191.71;1742860;80;20087;-65
2022/01/10 10:33:21;;;;;;;;;;;;;;;-4.04;100.00;99186.16;1752448;80;20212;-65
2022/01/10 10:35:59;;;;;;;;;;;;;;;-4.07;100.00;99196.49;1745103;81;20221;-66
2022/01/10 10:38:26;;;;;;;;;;;;;;;-4.06;100.00;99190.78;1752316;80;20776;-66
2022/01/10 10:40:52;;;;;;;;;;;;;;;-4.04;100.00;99204.52;1737655;80;20426;-67
2022/01/10 10:43:19;;;;;;;;;;;;;;;-3.96;100.00;99205.82;1719407;83;20141;-65
2022/01/10 10:45:47;;;;;;;;;;;;;;;-3.84;100.00;99201.84;1730117;80;20178;-66
2022/01/10 10:48:14;;;;;;;;;;;;;;;-3.67;100.00;99205.23;1748663;82;20170;-67
2022/01/10 10:50:45;;;;;;;;;;;;;;;-3.63;100.00;99205.69;1752828;81;21131;-67
2022/01/10 10:53:14;;;;;;;;;;;;;;;-3.62;100.00;99216.02;1736576;81;20108;-63
2022/01/10 10:55:42;;;;;;;;;;;;;;;-3.57;100.00;99218.95;1709570;83;20184;-65
2022/01/10 10:58:09;;;;;;;;;;;;;;;-3.51;100.00;99221.38;1709065;83;20098;-67
2022/01/10 11:00:36;;;;;;;;;;;;;;;-3.58;100.00;99218.61;1727406;80;20124;-64
2022/01/10 11:03:04;;;;;;;;;;;;;;;-3.61;100.00;99220.77;1765588;80;20117;-65
2022/01/10 11:05:32;;;;;;;;;;;;;;;-3.86;100.00;99222.67;1769636;81;20097;-65
2022/01/10 11:07:58;;;;;;;;;;;;;;;-3.88;100.00;99232.01;1769361;80;20113;-65
2022/01/10 11:10:25;;;;;;;;;;;;;;;-3.88;100.00;99228.89;1769770;81;20746;-66
2022/01/10 11:12:56;;;;;;;;;;;;;;;-3.88;100.00;99239.87;1755987;80;20086;-64
2022/01/10 11:15:23;;;;;;;;;;;;;;;-3.83;100.00;99244.12;1730895;80;21161;-66
2022/01/10 11:17:50;;;;;;;;;;;;;;;-3.93;100.00;99240.88;1706932;83;20151;-65
2022/01/10 11:20:18;;;;;;;;;;;;;;;-4.04;100.00;99241.22;1737907;81;20089;-66
2022/01/10 11:22:47;;;;;;;;;;;;;;;-4.08;100.00;99252.55;1768700;80;20435;-65
2022/01/10 11:25:21;;;;;;;;;;;;;;;-4.09;100.00;99256.16;1729739;80;20173;-64
2022/01/10 11:27:48;;;;;;;;;;;;;;;-4.13;100.00;99256.16;1748115;80;21169;-66
2022/01/10 11:30:35;;;;;;;;;;;;;;;-4.18;100.00;99252.72;1725821;81;20091;-65
2022/01/10 11:33:15;;;;;;;;;;;;;;;-4.16;100.00;99249.45;1719381;83;20101;-64
2022/01/10 11:35:48;;;;;;;;;;;;;;;-4.07;100.00;99261.22;1729496;81;20206;-65
2022/01/10 11:38:20;;;;;;;;;;;;;;;-3.96;100.00;99266.12;1753801;82;20124;-65
2022/01/10 11:40:49;;;;;;;;;;;;;;;-3.97;100.00;99257.92;1753854;81;21143;-68
2022/01/10 11:43:25;;;;;;;;;;;;;;;-3.91;100.00;99259.88;1753529;82;20116;-67
2022/01/10 11:45:54;;;;;;;;;;;;;;;-3.95;100.00;99260.70;1750476;80;20093;-62
2022/01/10 11:48:21;;;;;;;;;;;;;;;-4.06;100.00;99259.75;1717122;82;20142;-66
2022/01/10 11:50:47;;;;;;;;;;;;;;;-4.04;100.00;99259.56;1748220;82;20607;-63
2022/01/10 11:53:16;;;;;;;;;;;;;;;-4.10;100.00;99262.37;1739510;80;21813;-63
2022/01/10 11:55:46;;;;;;;;;;;;;;;-4.17;100.00;99264.02;1710876;82;20778;-63
2022/01/10 11:58:17;;;;;;;;;;;;;;;-4.22;100.00;99272.38;1687018;83;20137;-64
2022/01/10 12:00:44;;;;;;;;;;;;;;;-4.30;100.00;99264.52;1698417;83;20187;-63
2022/01/10 12:03:10;;;;;;;;;;;;;;;-4.35;100.00;99266.33;1736451;80;20214;-66
2022/01/10 12:05:37;;;;;;;;;;;;;;;-4.38;100.00;99265.85;1737813;80;21142;-64
2022/01/10 12:08:04;;;;;;;;;;;;;;;-4.43;100.00;99263.72;1739973;80;20163;-65
2022/01/10 12:10:32;;;;;;;;;;;;;;;-4.40;100.00;99276.48;1734839;80;20139;-65
2022/01/10 12:13:09;;;;;;;;;;;;;;;-4.44;100.00;99275.16;1742578;82;20095;-65
2022/01/10 12:15:36;;;;;;;;;;;;;;;-4.50;100.00;99282.88;1743318;80;20413;-63
2022/01/10 12:18:14;;;;;;;;;;;;;;;-4.47;100.00;99285.98;1636585;86;21138;-65
2022/01/10 12:20:41;;;;;;;;;;;;;;;-4.53;100.00;99289.27;1611504;86;20224;-67
2022/01/10 12:23:07;;;;;;;;;;;;;;;-4.48;100.00;99284.82;1634085;86;20163;-63
2022/01/10 12:25:34;;;;;;;;;;;;;;;-4.41;100.00;99291.05;1634730;86;20698;-66
2022/01/10 12:28:02;;;;;;;;;;;;;;;-4.39;100.00;99296.45;1580419;89;20155;-66
2022/01/10 12:30:30;;;;;;;;;;;;;;;-4.32;100.00;99303.98;1626227;88;21925;-67
2022/01/10 12:32:56;;;;;;;;;;;;;;;-4.33;100.00;99297.13;1603439;89;20170;-66
2022/01/10 12:35:23;;;;;;;;;;;;;;;-4.32;100.00;99308.42;1603390;89;20179;-65
2022/01/10 12:37:55;;;;;;;;;;;;;;;-4.33;100.00;99312.03;1599907;88;20131;-64
2022/01/10 12:40:22;;;;;;;;;;;;;;;-4.35;100.00;99316.61;1599914;89;20175;-68
2022/01/10 12:42:52;;;;;;;;;;;;;;;-4.48;100.00;99324.12;1600584;88;21132;-68
2022/01/10 12:45:20;;;;;;;;;;;;;;;-4.69;100.00;99305.77;1600676;89;20176;-67
2022/01/10 12:47:46;;;;;;;;;;;;;;;-4.79;100.00;99322.94;1601374;89;20227;-66
2022/01/10 12:50:13;;;;;;;;;;;;;;;-4.89;100.00;99332.73;1627238;86;20121;-64
2022/01/10 12:52:42;;;;;;;;;;;;;;;-4.94;100.00;99344.67;1630089;88;20148;-65
2022/01/10 12:55:10;;;;;;;;;;;;;;;-4.99;100.00;99346.45;1629943;88;21972;-67
2022/01/10 12:57:37;;;;;;;;;;;;;;;-5.01;100.00;99351.02;1629091;86;20471;-66